CYMM

Fort McMurray Airport

Fort McMurray, Alberta, Canada
METAR CYMM 191800Z AUTO 30005KT 280V340 9SM FEW019 05/M01 A3014 RMK SLP229
Observed Flight Rules
Sep-19 @ 18:00 UTC (48 minutes ago) Visual Flight Rules
Wind Visibility Clouds
300° at 5 knots 9 miles
  • Few at 1,900' AGL
Temperatures Readings
Current 5°C / 41°F
Dewpoint -1°C / 30°F
Humidity 66%
Altimeter 30.14" Hg
Pressure 1022.9 hPa
Elevation 369
METAR CYMM 191800Z AUTO 30005KT 280V340 9SM FEW019 05/M01 A3014 RMK SLP229
Observed Flight Rules
Sep-19 @ 18:00 UTC
(48 minutes ago)
VFR
Wind Visibility
300° at 5 knots 9 miles
Clouds
  • Few at 1,900' AGL
Temperature Dewpoint
5°C / 41°F -1°C / 30°F
Humidity Altimeter Pressure
66% 30.14" Hg 1022.9 hPa